createdAt,value
2024-02-20T00:00:07.994Z,102530.44
2024-02-20T00:02:35.345Z,102529.41
2024-02-20T00:05:06.170Z,102530.44
2024-02-20T00:07:33.664Z,102548.03
2024-02-20T00:10:02.057Z,102531.28
2024-02-20T00:12:31.130Z,102533.19
2024-02-20T00:15:00.435Z,102536.88
2024-02-20T00:17:29.330Z,102532.97
2024-02-20T00:19:56.553Z,102532.88
2024-02-20T00:22:25.336Z,102530.97
2024-02-20T00:24:53.075Z,102533.28
2024-02-20T00:27:20.249Z,102532.44
2024-02-20T00:29:47.921Z,102537.63
2024-02-20T00:32:14.955Z,102526.44
2024-02-20T00:34:42.203Z,102534.03
2024-02-20T00:37:11.013Z,102541.19
2024-02-20T00:39:39.925Z,102542.03
2024-02-20T00:42:08.363Z,102540.25
2024-02-20T00:44:35.822Z,102549.50
2024-02-20T00:47:10.252Z,102549.16
2024-02-20T00:49:38.726Z,102542.22
2024-02-20T00:52:09.034Z,102540.31
2024-02-20T00:54:43.191Z,102537.78
2024-02-20T00:57:11.544Z,102537.38
2024-02-20T00:59:39.208Z,102531.16
2024-02-20T01:02:12.887Z,102535.88
2024-02-20T01:04:41.132Z,102535.66
2024-02-20T01:07:08.705Z,102538.91
2024-02-20T01:09:36.252Z,102542.38
2024-02-20T01:12:05.776Z,102546.38
2024-02-20T01:14:33.400Z,102537.50
2024-02-20T01:17:00.540Z,102536.47
2024-02-20T01:19:27.788Z,102535.84
2024-02-20T01:21:55.128Z,102533.09
2024-02-20T01:24:23.487Z,102542.47
2024-02-20T01:26:50.652Z,102540.78
2024-02-20T01:29:23.176Z,102538.97
2024-02-20T01:31:54.599Z,102540.78
2024-02-20T01:34:22.547Z,102534.16
2024-02-20T01:36:50.540Z,102543.75
2024-02-20T01:39:17.919Z,102545.31
2024-02-20T01:41:48.332Z,102544.47
2024-02-20T01:44:15.508Z,102544.47
2024-02-20T01:46:44.273Z,102543.16
2024-02-20T01:49:11.671Z,102542.22
2024-02-20T01:51:40.294Z,102540.53
2024-02-20T01:54:10.741Z,102547.91
2024-02-20T01:56:40.103Z,102545.03
2024-02-20T01:59:07.595Z,102540.50
2024-02-20T02:01:34.851Z,102545.22
2024-02-20T02:04:03.696Z,102546.50
2024-02-20T02:06:32.020Z,102540.91
2024-02-20T02:08:59.213Z,102545.22
2024-02-20T02:11:26.507Z,102546.16
2024-02-20T02:13:53.884Z,102539.22
2024-02-20T02:16:20.981Z,102541.38
2024-02-20T02:18:48.571Z,102539.69
2024-02-20T02:21:17.462Z,102541.38
2024-02-20T02:23:44.551Z,102546.66
2024-02-20T02:26:13.295Z,102544.97
2024-02-20T02:28:43.522Z,102536.31
2024-02-20T02:31:10.895Z,102542.69
2024-02-20T02:33:38.191Z,102544.75
2024-02-20T02:36:06.097Z,102546.22
2024-02-20T02:38:33.224Z,102545.38
2024-02-20T02:41:04.473Z,102554.75
2024-02-20T02:43:33.938Z,102550.53
2024-02-20T02:46:01.183Z,102550.97
2024-02-20T02:48:28.470Z,102546.94
2024-02-20T02:50:55.445Z,102542.72
2024-02-20T02:53:23.329Z,102541.16
2024-02-20T02:55:50.457Z,102539.03
2024-02-20T02:58:17.576Z,102548.13
2024-02-20T03:00:47.142Z,102543.22
2024-02-20T03:03:14.717Z,102552.44
2024-02-20T03:05:41.939Z,102554.34
2024-02-20T03:08:12.027Z,102535.25
2024-02-20T03:10:39.330Z,102531.03
2024-02-20T03:13:06.685Z,102536.94
2024-02-20T03:15:36.498Z,102534.19
2024-02-20T03:18:07.948Z,102526.28
2024-02-20T03:20:35.341Z,102513.19
2024-02-20T03:23:02.536Z,102515.84
2024-02-20T03:25:29.798Z,102520.50
2024-02-20T03:27:58.484Z,102517.28
2024-02-20T03:30:26.837Z,102515.84
2024-02-20T03:32:54.000Z,102517.75
2024-02-20T03:35:24.703Z,102510.31
2024-02-20T03:37:52.078Z,102514.03
2024-02-20T03:40:20.567Z,102513.78
2024-02-20T03:42:47.893Z,102505.50
2024-02-20T03:45:16.488Z,102502.19
2024-02-20T03:47:43.930Z,102506.50
2024-02-20T03:50:11.409Z,102496.06
2024-02-20T03:52:42.223Z,102502.28
2024-02-20T03:55:09.660Z,102498.59
2024-02-20T03:57:36.866Z,102496.66
2024-02-20T04:00:12.925Z,102504.66
2024-02-20T04:02:44.021Z,102506.34
2024-02-20T04:05:20.047Z,102504.09
2024-02-20T04:07:49.910Z,102503.72
2024-02-20T04:10:18.588Z,102503.47
2024-02-20T04:12:45.949Z,102503.88
2024-02-20T04:15:14.498Z,102501.81
2024-02-20T04:17:41.796Z,102505.66
2024-02-20T04:20:12.791Z,102504.66
2024-02-20T04:22:40.621Z,102511.19
2024-02-20T04:25:09.751Z,102501.47
2024-02-20T04:27:51.728Z,102505.19
2024-02-20T04:30:21.443Z,102502.19
2024-02-20T04:32:48.697Z,102491.97
2024-02-20T04:35:16.165Z,102498.94
2024-02-20T04:37:44.302Z,102506.13
2024-02-20T04:40:13.467Z,102498.00
2024-02-20T04:42:40.478Z,102501.56
2024-02-20T04:45:08.337Z,102495.59
2024-02-20T04:47:37.821Z,102503.34
2024-02-20T04:50:07.199Z,102496.41
2024-02-20T04:52:34.577Z,102503.03
2024-02-20T04:55:04.615Z,102501.56
2024-02-20T04:57:33.593Z,102506.34
2024-02-20T05:00:00.774Z,102508.78
2024-02-20T05:02:27.981Z,102513.94
2024-02-20T05:04:57.058Z,102499.16
2024-02-20T05:07:24.966Z,102500.84
2024-02-20T05:09:54.645Z,102484.28
2024-02-20T05:12:21.908Z,102494.13
2024-02-20T05:14:50.604Z,102488.25
2024-02-20T05:17:17.876Z,102495.31
2024-02-20T05:19:44.987Z,102481.19
2024-02-20T05:22:13.357Z,102477.09
2024-02-20T05:24:42.653Z,102482.59
2024-02-20T05:27:10.282Z,102489.03
2024-02-20T05:29:37.194Z,102477.03
2024-02-20T05:32:07.355Z,102484.44
2024-02-20T05:34:35.239Z,102495.50
2024-02-20T05:37:02.377Z,102497.63
2024-02-20T05:39:30.643Z,102501.19
2024-02-20T05:41:57.958Z,102500.09
2024-02-20T05:44:25.289Z,102495.56
2024-02-20T05:46:52.795Z,102495.88
2024-02-20T05:49:21.676Z,102487.38
2024-02-20T05:51:49.353Z,102485.34
2024-02-20T05:54:16.396Z,102487.50
2024-02-20T05:56:44.898Z,102492.66
2024-02-20T05:59:12.407Z,102487.38
2024-02-20T06:01:39.514Z,102486.19
2024-02-20T06:04:08.183Z,102481.28
2024-02-20T06:06:39.501Z,102480.66
2024-02-20T06:09:06.761Z,102483.28
2024-02-20T06:11:36.072Z,102478.22
2024-02-20T06:14:04.487Z,102493.09
2024-02-20T06:16:31.793Z,102492.25
2024-02-20T06:18:58.914Z,102485.50
2024-02-20T06:21:26.730Z,102480.47
2024-02-20T06:23:55.778Z,102484.34
2024-02-20T06:26:24.130Z,102476.03
2024-02-20T06:28:52.333Z,102489.94
2024-02-20T06:31:19.666Z,102481.72
2024-02-20T06:33:46.823Z,102478.56
2024-02-20T06:36:14.511Z,102482.13
2024-02-20T06:38:42.169Z,102483.50
2024-02-20T06:41:11.198Z,102482.75
2024-02-20T06:43:38.699Z,102477.50
2024-02-20T06:46:06.073Z,102463.69
2024-02-20T06:48:33.628Z,102462.75
2024-02-20T06:51:01.078Z,102473.06
2024-02-20T06:53:28.295Z,102473.06
2024-02-20T06:55:57.998Z,102472.34
2024-02-20T06:58:28.076Z,102484.75
2024-02-20T07:00:55.719Z,102481.50
2024-02-20T07:03:22.994Z,102476.44
2024-02-20T07:05:50.230Z,102472.16
2024-02-20T07:08:19.180Z,102474.09
2024-02-20T07:10:47.028Z,102466.00
2024-02-20T07:13:14.496Z,102476.53
2024-02-20T07:15:44.261Z,102485.19
2024-02-20T07:18:13.916Z,102487.81
2024-02-20T07:20:41.156Z,102478.44
2024-02-20T07:23:08.607Z,102485.59
2024-02-20T07:25:37.781Z,102486.53
2024-02-20T07:28:07.334Z,102487.75
2024-02-20T07:30:34.633Z,102492.19
2024-02-20T07:33:05.847Z,102492.66
2024-02-20T07:35:33.236Z,102488.28
2024-02-20T07:38:00.270Z,102484.78
2024-02-20T07:40:27.999Z,102484.91
2024-02-20T07:42:55.224Z,102475.31
2024-02-20T07:45:22.534Z,102465.31
2024-02-20T07:47:50.247Z,102462.09
2024-02-20T07:50:23.246Z,102473.56
2024-02-20T07:52:52.764Z,102472.25
2024-02-20T07:55:20.081Z,102468.22
2024-02-20T07:57:48.215Z,102471.25
2024-02-20T08:00:15.298Z,102468.59
2024-02-20T08:02:42.783Z,102454.44
2024-02-20T08:05:15.521Z,102453.38
2024-02-20T08:07:44.317Z,102449.50
2024-02-20T08:10:13.444Z,102462.69
2024-02-20T08:12:44.856Z,102465.66
2024-02-20T08:15:12.513Z,102469.03
2024-02-20T08:17:39.878Z,102464.09
2024-02-20T08:20:08.363Z,102466.22
2024-02-20T08:22:35.489Z,102460.09
2024-02-20T08:25:05.624Z,102462.72
2024-02-20T08:27:32.983Z,102469.69
2024-02-20T08:30:00.962Z,102469.25
2024-02-20T08:32:27.994Z,102471.72
2024-02-20T08:34:55.286Z,102473.13
2024-02-20T08:37:22.636Z,102456.97
2024-02-20T08:39:52.742Z,102465.72
2024-02-20T08:42:22.185Z,102457.09
2024-02-20T08:44:49.209Z,102464.06
2024-02-20T08:47:16.837Z,102457.78
2024-02-20T08:49:46.438Z,102461.66
2024-02-20T08:52:13.889Z,102466.56
2024-02-20T08:54:41.869Z,102455.38
2024-02-20T08:57:09.315Z,102463.56
2024-02-20T08:59:38.351Z,102462.38
2024-02-20T09:02:05.592Z,102461.31
2024-02-20T09:04:33.773Z,102457.47
2024-02-20T09:07:03.745Z,102462.41
2024-02-20T09:09:32.619Z,102459.25
2024-02-20T09:12:03.066Z,102453.63
2024-02-20T09:14:30.926Z,102449.19
2024-02-20T09:16:59.989Z,102461.66
2024-02-20T09:19:27.524Z,102457.94
2024-02-20T09:21:54.845Z,102455.38
2024-02-20T09:24:22.230Z,102451.66
2024-02-20T09:26:49.802Z,102447.31
2024-02-20T09:29:19.766Z,102449.84
2024-02-20T09:31:47.157Z,102446.44
2024-02-20T09:34:16.753Z,102440.81
2024-02-20T09:36:44.065Z,102441.28
2024-02-20T09:39:11.935Z,102450.41
2024-02-20T09:41:40.431Z,102455.91
2024-02-20T09:44:09.528Z,102455.50
2024-02-20T09:46:48.423Z,102458.44
2024-02-20T09:49:18.973Z,102455.22
2024-02-20T09:51:48.034Z,102454.25
2024-02-20T09:54:15.849Z,102452.66
2024-02-20T09:56:43.834Z,102442.16
2024-02-20T09:59:15.196Z,102447.06
2024-02-20T10:01:42.870Z,102441.03
2024-02-20T10:04:11.988Z,102442.84
2024-02-20T10:06:41.110Z,102440.53
2024-02-20T10:09:10.090Z,102437.22
2024-02-20T10:11:37.784Z,102438.88
2024-02-20T10:14:05.274Z,102428.34
2024-02-20T10:16:32.725Z,102428.47
2024-02-20T10:19:01.449Z,102426.97
2024-02-20T10:21:30.049Z,102436.28
2024-02-20T10:24:11.588Z,102426.38
2024-02-20T10:26:46.048Z,102435.38
2024-02-20T10:29:15.070Z,102426.13
2024-02-20T10:31:44.689Z,102415.28
2024-02-20T10:34:14.977Z,102415.00
2024-02-20T10:36:45.025Z,102407.59
2024-02-20T10:39:14.425Z,102411.00
2024-02-20T10:41:42.644Z,102417.00
2024-02-20T10:44:12.825Z,102408.94
2024-02-20T10:46:41.767Z,102413.06
2024-02-20T10:49:19.621Z,102416.13
2024-02-20T10:51:49.362Z,102417.22
2024-02-20T10:54:22.550Z,102424.06
2024-02-20T10:56:51.308Z,102407.59
2024-02-20T10:59:20.479Z,102419.47
2024-02-20T11:01:50.649Z,102425.03
2024-02-20T11:04:18.769Z,102419.72
2024-02-20T11:06:49.898Z,102418.09
2024-02-20T11:09:17.398Z,102413.84
2024-02-20T11:11:46.882Z,102422.28
2024-02-20T11:14:25.468Z,102415.03
2024-02-20T11:16:52.579Z,102413.72
2024-02-20T11:19:27.224Z,102416.78
2024-02-20T11:22:05.937Z,102396.59
2024-02-20T11:24:38.024Z,102381.03
2024-02-20T11:27:07.694Z,102364.44
2024-02-20T11:29:39.595Z,102373.03
2024-02-20T11:32:14.580Z,102372.25
2024-02-20T11:34:41.950Z,102379.97
2024-02-20T11:37:13.863Z,102387.09
2024-02-20T11:39:45.714Z,102363.69
2024-02-20T11:42:15.832Z,102360.56
2024-02-20T11:44:45.457Z,102362.84
2024-02-20T11:47:16.228Z,102355.94
2024-02-20T11:49:43.681Z,102355.56
2024-02-20T11:52:10.929Z,102338.69
2024-02-20T11:54:38.463Z,102341.09
2024-02-20T11:57:06.673Z,102335.06
2024-02-20T11:59:35.606Z,102341.09
2024-02-20T12:02:03.162Z,102332.13
2024-02-20T12:04:30.799Z,102327.50
2024-02-20T12:07:09.597Z,102328.22
2024-02-20T12:09:38.198Z,102322.66
2024-02-20T12:12:06.323Z,102316.91
2024-02-20T12:14:33.513Z,102319.16
2024-02-20T12:17:04.021Z,102316.22
2024-02-20T12:19:32.734Z,102319.69
2024-02-20T12:22:03.194Z,102316.59
2024-02-20T12:24:30.807Z,102313.56
2024-02-20T12:26:59.473Z,102305.81
2024-02-20T12:29:27.141Z,102306.44
2024-02-20T12:31:54.556Z,102301.66
2024-02-20T12:34:26.443Z,102303.88
2024-02-20T12:36:58.850Z,102315.56
2024-02-20T12:39:26.481Z,102305.91
2024-02-20T12:41:54.028Z,102312.53
2024-02-20T12:44:20.985Z,102309.22
2024-02-20T12:46:47.935Z,102311.75
2024-02-20T12:49:15.289Z,102283.78
2024-02-20T12:51:43.988Z,102306.31
2024-02-20T12:54:11.257Z,102295.56
2024-02-20T12:56:38.766Z,102288.66
2024-02-20T12:59:05.922Z,102277.91
2024-02-20T13:01:33.205Z,102282.94
2024-02-20T13:04:00.743Z,102288.84
2024-02-20T13:06:29.403Z,102282.00
2024-02-20T13:08:58.534Z,102278.09
2024-02-20T13:11:27.807Z,102258.03
2024-02-20T13:13:56.533Z,102253.00
2024-02-20T13:16:26.272Z,102244.22
2024-02-20T13:18:55.989Z,102240.44
2024-02-20T13:21:23.616Z,102243.69
2024-02-20T13:23:53.295Z,102233.59
2024-02-20T13:26:21.986Z,102218.81
2024-02-20T13:28:49.275Z,102217.97
2024-02-20T13:31:17.216Z,102213.53
2024-02-20T13:33:44.912Z,102205.84
2024-02-20T13:36:15.092Z,102201.13
2024-02-20T13:38:43.778Z,102187.59
2024-02-20T13:41:12.814Z,102195.94
2024-02-20T13:43:44.518Z,102213.28
2024-02-20T13:46:12.129Z,102195.84
2024-02-20T13:48:42.173Z,102185.38
2024-02-20T13:51:09.586Z,102189.25
2024-02-20T13:53:36.805Z,102178.66
2024-02-20T13:56:05.108Z,102163.31
2024-02-20T13:58:33.241Z,102151.56
2024-02-20T14:01:02.015Z,102164.16
2024-02-20T14:03:32.360Z,102162.38
2024-02-20T14:06:00.177Z,102143.81
2024-02-20T14:08:27.468Z,102139.91
2024-02-20T14:10:54.970Z,102146.97
2024-02-20T14:13:23.998Z,102137.22
2024-02-20T14:15:54.895Z,102142.22
2024-02-20T14:18:26.593Z,102132.63
2024-02-20T14:20:58.992Z,102142.13
2024-02-20T14:23:26.585Z,102157.16
2024-02-20T14:25:54.073Z,102162.47
2024-02-20T14:28:21.958Z,102159.13
2024-02-20T14:30:54.147Z,102160.22
2024-02-20T14:33:31.282Z,102179.34
2024-02-20T14:35:59.210Z,102177.00
2024-02-20T14:38:27.831Z,102180.34
2024-02-20T14:40:55.930Z,102176.69
2024-02-20T14:43:23.186Z,102166.66
2024-02-20T14:45:51.098Z,102162.91
2024-02-20T14:48:18.667Z,102178.25
2024-02-20T14:50:47.519Z,102159.28
2024-02-20T14:53:15.018Z,102153.56
2024-02-20T14:55:43.581Z,102149.94
2024-02-20T14:58:12.088Z,102139.22
2024-02-20T15:00:41.100Z,102147.44
2024-02-20T15:03:14.233Z,102138.53
2024-02-20T15:05:41.558Z,102144.22
2024-02-20T15:08:10.685Z,102139.91
2024-02-20T15:10:38.011Z,102140.06
2024-02-20T15:13:05.715Z,102130.84
2024-02-20T15:15:35.286Z,102114.00
2024-02-20T15:18:04.916Z,102113.72
2024-02-20T15:20:34.454Z,102118.44
2024-02-20T15:23:01.881Z,102117.88
2024-02-20T15:25:30.757Z,102107.56
2024-02-20T15:27:59.449Z,102112.59
2024-02-20T15:30:26.670Z,102102.00
2024-02-20T15:32:54.037Z,102095.84
2024-02-20T15:35:25.112Z,102107.84
2024-02-20T15:37:52.807Z,102089.59
2024-02-20T15:40:20.477Z,102100.88
2024-02-20T15:42:51.410Z,102101.56
2024-02-20T15:45:18.877Z,102091.69
2024-02-20T15:47:46.301Z,102101.69
2024-02-20T15:50:13.687Z,102088.06
2024-02-20T15:52:42.496Z,102083.06
2024-02-20T15:55:12.097Z,102079.41
2024-02-20T15:57:41.140Z,102087.22
2024-02-20T16:00:13.225Z,102085.69
2024-02-20T16:02:40.964Z,102088.91
2024-02-20T16:05:09.829Z,102068.13
2024-02-20T16:07:37.271Z,102082.06
2024-02-20T16:10:05.887Z,102097.81
2024-02-20T16:12:37.771Z,102090.28
2024-02-20T16:15:06.015Z,102096.28
2024-02-20T16:17:39.499Z,102076.91
2024-02-20T16:20:08.805Z,102067.44
2024-02-20T16:22:36.089Z,102080.13
2024-02-20T16:25:08.229Z,102072.31
2024-02-20T16:27:35.685Z,102064.53
2024-02-20T16:30:06.388Z,102065.91
2024-02-20T16:32:35.250Z,102070.66
2024-02-20T16:35:04.108Z,102071.06
2024-02-20T16:37:32.148Z,102066.03
2024-02-20T16:40:00.814Z,102066.03
2024-02-20T16:42:30.283Z,102059.63
2024-02-20T16:44:57.535Z,102053.63
2024-02-20T16:47:25.122Z,102056.00
2024-02-20T16:49:54.082Z,102053.34
2024-02-20T16:52:21.749Z,102036.78
2024-02-20T16:54:49.831Z,102050.72
2024-02-20T16:57:18.741Z,102059.91
2024-02-20T16:59:46.246Z,102060.31
2024-02-20T17:02:14.663Z,102060.59
2024-02-20T17:04:42.853Z,102065.75
2024-02-20T17:07:12.608Z,102054.78
2024-02-20T17:09:40.116Z,102050.44
2024-02-20T17:12:07.898Z,102059.78
2024-02-20T17:14:35.279Z,102042.06
2024-02-20T17:17:06.803Z,102051.56
2024-02-20T17:19:34.462Z,102037.34
2024-02-20T17:22:02.901Z,102050.44
2024-02-20T17:24:33.685Z,102055.16
2024-02-20T17:27:00.994Z,102061.84
2024-02-20T17:29:29.294Z,102058.94
2024-02-20T17:32:00.005Z,102073.00
2024-02-20T17:34:30.339Z,102074.38
2024-02-20T17:37:01.938Z,102069.22
2024-02-20T17:39:29.395Z,102066.16
2024-02-20T17:41:57.792Z,102058.19
2024-02-20T17:44:26.310Z,102057.63
2024-02-20T17:46:54.468Z,102042.03
2024-02-20T17:49:22.773Z,102050.94
2024-02-20T17:51:51.406Z,102056.50
2024-02-20T17:54:19.027Z,102060.81
2024-02-20T17:56:46.312Z,102057.28
2024-02-20T17:59:15.751Z,102057.59
2024-02-20T18:01:43.092Z,102053.81
2024-02-20T18:04:10.539Z,102057.66
2024-02-20T18:06:40.454Z,102052.84
2024-02-20T18:09:09.025Z,102041.44
2024-02-20T18:11:37.005Z,102030.75
2024-02-20T18:14:05.124Z,102025.34
2024-02-20T18:16:37.999Z,102015.03
2024-02-20T18:19:05.796Z,101995.97
2024-02-20T18:21:33.755Z,101995.84
2024-02-20T18:24:01.325Z,102005.56
2024-02-20T18:26:31.560Z,101984.25
2024-02-20T18:28:59.383Z,101994.69
2024-02-20T18:31:26.835Z,101992.50
2024-02-20T18:33:56.083Z,101986.75
2024-02-20T18:36:23.452Z,101984.13
2024-02-20T18:38:51.173Z,101969.78
2024-02-20T18:41:19.178Z,101979.41
2024-02-20T18:43:47.342Z,101991.91
2024-02-20T18:46:16.683Z,101972.16
2024-02-20T18:48:43.847Z,101970.91
2024-02-20T18:51:12.564Z,101983.00
2024-02-20T18:53:41.785Z,101992.91
2024-02-20T18:56:09.118Z,102000.84
2024-02-20T18:58:36.509Z,102011.44
2024-02-20T19:01:03.779Z,102017.00
2024-02-20T19:03:31.192Z,102015.06
2024-02-20T19:05:59.827Z,102005.59
2024-02-20T19:08:34.580Z,102004.75
2024-02-20T19:11:04.337Z,102000.44
2024-02-20T19:13:31.549Z,101993.91
2024-02-20T19:15:59.679Z,102000.59
2024-02-20T19:18:27.758Z,101998.34
2024-02-20T19:20:54.971Z,101985.53
2024-02-20T19:23:23.825Z,101983.72
2024-02-20T19:25:52.745Z,101976.09
2024-02-20T19:28:19.938Z,101987.50
2024-02-20T19:30:47.362Z,101973.72
2024-02-20T19:33:17.115Z,101970.78
2024-02-20T19:35:44.726Z,101979.69
2024-02-20T19:38:12.188Z,101982.31
2024-02-20T19:40:40.827Z,101960.72
2024-02-20T19:43:09.838Z,101965.19
2024-02-20T19:45:37.068Z,101968.53
2024-02-20T19:48:06.270Z,101957.44
2024-02-20T19:50:37.029Z,101966.19
2024-02-20T19:53:07.409Z,101963.81
2024-02-20T19:55:35.032Z,101960.22
2024-02-20T19:58:02.376Z,101959.63
2024-02-20T20:00:32.785Z,101947.22
2024-02-20T20:03:02.327Z,101943.59
2024-02-20T20:05:29.828Z,101929.53
2024-02-20T20:07:57.555Z,101933.44
2024-02-20T20:10:26.191Z,101927.47
2024-02-20T20:12:56.490Z,101922.84
2024-02-20T20:15:24.745Z,101920.34
2024-02-20T20:17:53.349Z,101932.47
2024-02-20T20:20:22.828Z,101931.34
2024-02-20T20:22:52.966Z,101930.66
2024-02-20T20:25:22.615Z,101922.31
2024-02-20T20:27:50.071Z,101927.72
2024-02-20T20:30:19.120Z,101938.88
2024-02-20T20:32:48.168Z,101935.81
2024-02-20T20:35:17.294Z,101935.13
2024-02-20T20:37:47.730Z,101956.00
2024-02-20T20:40:15.637Z,101944.03
2024-02-20T20:42:46.355Z,101943.88
2024-02-20T20:45:13.701Z,101952.09
2024-02-20T20:47:41.338Z,101942.63
2024-02-20T20:50:11.527Z,101937.50
2024-02-20T20:52:40.226Z,101936.66
2024-02-20T20:55:11.152Z,101957.13
2024-02-20T20:57:39.278Z,101953.63
2024-02-20T21:00:07.581Z,101940.56
2024-02-20T21:02:37.487Z,101942.66
2024-02-20T21:05:05.704Z,101951.28
2024-02-20T21:07:32.933Z,101942.66
2024-02-20T21:10:02.133Z,101938.63
2024-02-20T21:12:29.460Z,101957.94
2024-02-20T21:14:57.166Z,101956.88
2024-02-20T21:17:24.653Z,101951.16
2024-02-20T21:19:51.717Z,101960.22
2024-02-20T21:22:19.842Z,101956.88
2024-02-20T21:24:47.394Z,101948.38
2024-02-20T21:27:17.194Z,101953.53
2024-02-20T21:29:45.270Z,101944.47
2024-02-20T21:32:13.859Z,101947.38
2024-02-20T21:34:41.378Z,101944.59
2024-02-20T21:37:08.851Z,101955.19
2024-02-20T21:39:36.517Z,101924.28
2024-02-20T21:42:04.091Z,101925.25
2024-02-20T21:44:32.924Z,101922.06
2024-02-20T21:47:00.551Z,101917.31
2024-02-20T21:49:27.907Z,101935.13
2024-02-20T21:51:55.182Z,101921.47
2024-02-20T21:54:23.516Z,101933.75
2024-02-20T21:56:51.637Z,101908.56
2024-02-20T21:59:19.924Z,101920.50
2024-02-20T22:01:49.699Z,101910.22
2024-02-20T22:04:17.540Z,101903.81
2024-02-20T22:06:45.109Z,101918.84
2024-02-20T22:09:12.789Z,101909.22
2024-02-20T22:11:41.607Z,101907.84
2024-02-20T22:14:12.056Z,101895.19
2024-02-20T22:16:41.991Z,101904.38
2024-02-20T22:19:13.342Z,101900.22
2024-02-20T22:21:40.738Z,101883.09
2024-02-20T22:24:08.896Z,101902.84
2024-02-20T22:26:37.940Z,101899.50
2024-02-20T22:29:05.541Z,101915.59
2024-02-20T22:31:34.597Z,101885.81
2024-02-20T22:34:01.859Z,101884.72
2024-02-20T22:36:30.668Z,101890.72
2024-02-20T22:38:58.036Z,101886.66
2024-02-20T22:41:28.914Z,101880.28
2024-02-20T22:43:56.631Z,101875.81
2024-02-20T22:46:24.164Z,101876.50
2024-02-20T22:48:51.760Z,101877.47
2024-02-20T22:51:19.104Z,101875.81
2024-02-20T22:53:47.791Z,101862.03
2024-02-20T22:56:16.100Z,101864.66
2024-02-20T22:58:43.698Z,101864.13
2024-02-20T23:01:11.326Z,101866.34
2024-02-20T23:03:40.836Z,101866.09
2024-02-20T23:06:08.222Z,101866.47
2024-02-20T23:08:35.801Z,101839.66
2024-02-20T23:11:05.090Z,101862.63
2024-02-20T23:13:32.543Z,101852.75
2024-02-20T23:15:59.776Z,101846.63
2024-02-20T23:18:27.048Z,101849.41
2024-02-20T23:20:54.286Z,101850.78
2024-02-20T23:23:21.672Z,101841.63
2024-02-20T23:25:49.053Z,101839.09
2024-02-20T23:28:18.590Z,101840.09
2024-02-20T23:30:46.310Z,101830.91
2024-02-20T23:33:13.560Z,101818.09
2024-02-20T23:35:41.077Z,101821.28
2024-02-20T23:38:08.605Z,101837.03
2024-02-20T23:40:35.920Z,101836.31
2024-02-20T23:43:03.324Z,101851.50
2024-02-20T23:45:33.330Z,101834.25
2024-02-20T23:48:00.717Z,101841.91
2024-02-20T23:50:31.414Z,101830.19
2024-02-20T23:52:58.748Z,101813.91
2024-02-20T23:55:26.215Z,101825.75
2024-02-20T23:57:53.567Z,101837.81
